PWSweather.com
Personal Weather Stations
Station Observations
1SPOLTWX
Spoltore Localita' Villa S.maria, SpoltoreIT

Spoltore Localita' Villa S.mariaSpoltoreIT

Lat: 42.452, Lon: 14.111

Elevation: 516

Station Type: Oregon WMR88

http://www.spoltoremeteo.it

Latest ConditionsUpdated 1:05:01 PM GMT+01:01 Sunday, Jan 20, 2019
Currently Today's Max Today's Min Today's Average
Temperature 47.8°F8.8°C 48.2°F9.0°C 43.5°F6.4°C 45.8°F7.7°C
Dew Point 45.3°F7.4°C 46.3°F7.9°C 42.6°F5.9°C 44.3°F6.8°C
Winds 3.9 mph N6.3 kmh N 6.4 mph -10.3 kmh - - 3.5 mph 5.6 kmh
Wind Gusts 5.6 mph9.0 kmh 7.6 mph12.2 kmh - -
Humidity 91% 97% 90% 94%
Pressure 29.98 in1015.2 mb 29.98 in1015.2 mb 29.98 in1015.2 mb -
Hour Temp Dew Point Humidity Winds Wind Gusts Pressure Precip Precip Rate Daily Precip Total
01:05 PM 47.8°F8.8°C 45.3°F7.4°C 91% 3.9 mph N6.3 kmh N 5.6 mph9.0 kmh 29.98 in1015.2 mb 0.00 in0.0 mm 0.00 in0.0 mm 0.00 in0.0 mm
01:00 PM 47.8°F8.8°C 45.3°F7.4°C 91% 3.7 mph N6.0 kmh N 5.6 mph9.0 kmh 29.98 in1015.2 mb 0.00 in0.0 mm 0.00 in0.0 mm 0.00 in0.0 mm
12:55 PM 47.7°F8.7°C 44.9°F7.2°C 90% 3.8 mph NNE6.1 kmh NNE 5.1 mph8.2 kmh 29.98 in1015.2 mb 0.00 in0.0 mm 0.00 in0.0 mm 0.00 in0.0 mm
12:50 PM 47.8°F8.8°C 45.3°F7.4°C 91% 3.3 mph NE5.3 kmh NE 5.1 mph8.2 kmh 29.98 in1015.2 mb 0.00 in0.0 mm 0.00 in0.0 mm 0.00 in0.0 mm
12:45 PM 48.0°F8.9°C 45.5°F7.5°C 91% 2.9 mph ENE4.7 kmh ENE 4.0 mph6.4 kmh 29.98 in1015.2 mb 0.00 in0.0 mm 0.00 in0.0 mm 0.00 in0.0 mm
12:40 PM 48.0°F8.9°C 45.5°F7.5°C 91% 3.2 mph E5.1 kmh E 3.8 mph6.1 kmh 29.98 in1015.2 mb 0.00 in0.0 mm 0.00 in0.0 mm 0.00 in0.0 mm
12:35 PM 48.2°F9.0°C 45.7°F7.6°C 91% 2.7 mph E4.3 kmh E 3.8 mph6.1 kmh 29.98 in1015.2 mb 0.00 in0.0 mm 0.00 in0.0 mm 0.00 in0.0 mm
12:30 PM 48.2°F9.0°C 45.7°F7.6°C 91% 2.9 mph E4.7 kmh E 4.3 mph6.9 kmh 29.98 in1015.2 mb 0.00 in0.0 mm 0.00 in0.0 mm 0.00 in0.0 mm
12:25 PM 48.2°F9.0°C 45.7°F7.6°C 91% 2.7 mph E4.3 kmh E 4.3 mph6.9 kmh 29.98 in1015.2 mb 0.00 in0.0 mm 0.00 in0.0 mm 0.00 in0.0 mm
12:20 PM 48.2°F9.0°C 46.0°F7.8°C 92% 1.7 mph E2.7 kmh E 3.8 mph6.1 kmh 29.98 in1015.2 mb 0.00 in0.0 mm 0.00 in0.0 mm 0.00 in0.0 mm
12:15 PM 48.2°F9.0°C 46.0°F7.8°C 92% 2.5 mph E4.0 kmh E 3.8 mph6.1 kmh 29.98 in1015.2 mb 0.00 in0.0 mm 0.00 in0.0 mm 0.00 in0.0 mm
12:10 PM 48.2°F9.0°C 46.3°F7.9°C 93% 2.8 mph ESE4.5 kmh ESE 3.8 mph6.1 kmh 29.98 in1015.2 mb 0.00 in0.0 mm 0.00 in0.0 mm 0.00 in0.0 mm
12:05 PM 48.0°F8.9°C 46.1°F7.8°C 93% 2.3 mph ESE3.7 kmh ESE 3.8 mph6.1 kmh 29.98 in1015.2 mb 0.00 in0.0 mm 0.00 in0.0 mm 0.00 in0.0 mm
12:00 PM 47.8°F8.8°C 45.9°F7.7°C 93% 2.1 mph E3.4 kmh E 3.8 mph6.1 kmh 29.98 in1015.2 mb 0.00 in0.0 mm 0.00 in0.0 mm 0.00 in0.0 mm
11:55 AM 47.5°F8.6°C 45.6°F7.6°C 93% 2.3 mph E3.7 kmh E 3.1 mph5.0 kmh 29.98 in1015.2 mb 0.00 in0.0 mm 0.00 in0.0 mm 0.00 in0.0 mm
11:50 AM 47.5°F8.6°C 45.8°F7.7°C 94% 2.3 mph NNW3.7 kmh NNW 3.1 mph5.0 kmh 29.98 in1015.2 mb 0.00 in0.0 mm 0.00 in0.0 mm 0.00 in0.0 mm
11:45 AM 47.3°F8.5°C 45.4°F7.4°C 93% 2.2 mph NE3.5 kmh NE 2.9 mph4.7 kmh 29.98 in1015.2 mb 0.00 in0.0 mm 0.00 in0.0 mm 0.00 in0.0 mm
11:40 AM 47.3°F8.5°C 45.7°F7.6°C 94% 2.1 mph NE3.4 kmh NE 2.7 mph4.3 kmh 29.98 in1015.2 mb 0.00 in0.0 mm 0.00 in0.0 mm 0.00 in0.0 mm
11:35 AM 47.1°F8.4°C 45.5°F7.5°C 94% 2.7 mph N4.3 kmh N 4.0 mph6.4 kmh 29.98 in1015.2 mb 0.00 in0.0 mm 0.00 in0.0 mm 0.00 in0.0 mm
11:30 AM 46.9°F8.3°C 45.3°F7.4°C 94% 3.2 mph N5.1 kmh N 4.0 mph6.4 kmh 29.98 in1015.2 mb 0.00 in0.0 mm 0.00 in0.0 mm 0.00 in0.0 mm
11:25 AM 46.8°F8.2°C 45.1°F7.3°C 94% 3.0 mph N4.8 kmh N 4.0 mph6.4 kmh 29.98 in1015.2 mb 0.00 in0.0 mm 0.00 in0.0 mm 0.00 in0.0 mm
11:20 AM 46.4°F8.0°C 44.8°F7.1°C 94% 1.7 mph NNE2.7 kmh NNE 4.0 mph6.4 kmh 29.98 in1015.2 mb 0.00 in0.0 mm 0.00 in0.0 mm 0.00 in0.0 mm
11:15 AM 46.4°F8.0°C 45.0°F7.2°C 95% 0.9 mph E1.4 kmh E 2.5 mph4.0 kmh 29.98 in1015.2 mb 0.00 in0.0 mm 0.00 in0.0 mm 0.00 in0.0 mm
11:10 AM 46.4°F8.0°C 45.0°F7.2°C 95% 1.6 mph ENE2.6 kmh ENE 1.6 mph2.6 kmh 29.98 in1015.2 mb 0.00 in0.0 mm 0.00 in0.0 mm 0.00 in0.0 mm
02:10 AM 43.7°F6.5°C 42.6°F5.9°C 96% 4.5 mph NNW7.2 kmh NNW 4.5 mph7.2 kmh 29.98 in1015.2 mb 0.00 in0.0 mm 0.00 in0.0 mm 0.00 in0.0 mm
02:05 AM 43.7°F6.5°C 42.9°F6.1°C 97% 4.3 mph NNW6.9 kmh NNW 4.5 mph7.2 kmh 29.98 in1015.2 mb 0.00 in0.0 mm 0.00 in0.0 mm 0.00 in0.0 mm
02:00 AM 43.7°F6.5°C 42.9°F6.1°C 97% 5.5 mph NNW8.9 kmh NNW 7.6 mph12.2 kmh 29.98 in1015.2 mb 0.00 in0.0 mm 0.00 in0.0 mm 0.00 in0.0 mm
01:55 AM 43.7°F6.5°C 42.9°F6.1°C 97% 6.4 mph NNW10.3 kmh NNW 7.6 mph12.2 kmh 29.98 in1015.2 mb 0.00 in0.0 mm 0.00 in0.0 mm 0.00 in0.0 mm
01:50 AM 43.5°F6.4°C 42.7°F5.9°C 97% 5.8 mph NNW9.3 kmh NNW 6.7 mph10.8 kmh 29.98 in1015.2 mb 0.00 in0.0 mm 0.00 in0.0 mm 0.00 in0.0 mm
01:45 AM 43.5°F6.4°C 42.7°F5.9°C 97% 4.5 mph NNW7.2 kmh NNW 5.8 mph9.3 kmh 29.98 in1015.2 mb 0.00 in0.0 mm 0.00 in0.0 mm 0.00 in0.0 mm
01:40 AM 43.5°F6.4°C 42.7°F5.9°C 97% 4.3 mph NW6.9 kmh NW 5.4 mph8.7 kmh 29.98 in1015.2 mb 0.00 in0.0 mm 0.00 in0.0 mm 0.00 in0.0 mm
01:35 AM 43.5°F6.4°C 42.7°F5.9°C 97% 3.8 mph NW6.1 kmh NW 5.4 mph8.7 kmh 29.98 in1015.2 mb 0.00 in0.0 mm 0.00 in0.0 mm 0.00 in0.0 mm
01:30 AM 43.5°F6.4°C 42.7°F5.9°C 97% 3.1 mph NW5.0 kmh NW 4.3 mph6.9 kmh 29.98 in1015.2 mb 0.00 in0.0 mm 0.00 in0.0 mm 0.00 in0.0 mm
01:25 AM 43.5°F6.4°C 42.7°F5.9°C 97% 2.9 mph NW4.7 kmh NW 2.9 mph4.7 kmh 29.98 in1015.2 mb 0.00 in0.0 mm 0.00 in0.0 mm 0.00 in0.0 mm
01:20 AM 43.5°F6.4°C 42.7°F5.9°C 97% 2.9 mph NW4.7 kmh NW 3.1 mph5.0 kmh 29.98 in1015.2 mb 0.00 in0.0 mm 0.00 in0.0 mm 0.00 in0.0 mm
01:15 AM 43.5°F6.4°C 42.7°F5.9°C 97% 3.0 mph NW4.8 kmh NW 3.1 mph5.0 kmh 29.98 in1015.2 mb 0.00 in0.0 mm 0.00 in0.0 mm 0.00 in0.0 mm
01:10 AM 43.7°F6.5°C 42.9°F6.1°C 97% 5.4 mph NNW8.7 kmh NNW 5.4 mph8.7 kmh 29.98 in1015.2 mb 0.00 in0.0 mm 0.00 in0.0 mm 0.00 in0.0 mm
01:05 AM 43.7°F6.5°C 42.9°F6.1°C 97% 5.4 mph NNW8.7 kmh NNW 5.4 mph8.7 kmh 29.98 in1015.2 mb 0.00 in0.0 mm 0.00 in0.0 mm 0.00 in0.0 mm
01:00 AM 43.7°F6.5°C 42.9°F6.1°C 97% 5.7 mph NNW9.2 kmh NNW 6.3 mph10.1 kmh 29.98 in1015.2 mb 0.00 in0.0 mm 0.00 in0.0 mm 0.00 in0.0 mm
12:55 AM 43.7°F6.5°C 42.9°F6.1°C 97% 5.5 mph NNW8.9 kmh NNW 6.3 mph10.1 kmh 29.98 in1015.2 mb 0.00 in0.0 mm 0.00 in0.0 mm 0.00 in0.0 mm
12:50 AM 43.7°F6.5°C 42.9°F6.1°C 97% 5.2 mph NW8.4 kmh NW 6.3 mph10.1 kmh 29.98 in1015.2 mb 0.00 in0.0 mm 0.00 in0.0 mm 0.00 in0.0 mm
12:45 AM 43.9°F6.6°C 43.1°F6.2°C 97% 4.5 mph NW7.2 kmh NW 5.6 mph9.0 kmh 29.98 in1015.2 mb 0.00 in0.0 mm 0.00 in0.0 mm 0.00 in0.0 mm
12:10 AM 44.2°F6.8°C 43.4°F6.3°C 97% 3.6 mph N5.8 kmh N 4.0 mph6.4 kmh 29.98 in1015.2 mb 0.00 in0.0 mm 0.00 in0.0 mm 0.00 in0.0 mm